createdAt,value
2023-05-14T00:00:02.610Z,275.972
2023-05-14T00:05:02.652Z,200.847
2023-05-14T00:10:02.565Z,195.826
2023-05-14T00:15:02.608Z,203.399
2023-05-14T00:20:02.646Z,204.143
2023-05-14T00:25:02.595Z,202.10500000000002
2023-05-14T00:30:02.708Z,192.54500000000002
2023-05-14T00:35:02.764Z,288.832
2023-05-14T00:40:02.747Z,302.714
2023-05-14T00:45:02.847Z,296.555
2023-05-14T00:50:03.212Z,229.22
2023-05-14T00:55:02.613Z,185.928
2023-05-14T01:00:02.623Z,163.769
2023-05-14T01:05:02.687Z,161.679
2023-05-14T01:10:06.186Z,161.59
2023-05-14T01:15:06.246Z,161.741
2023-05-14T01:20:06.317Z,252.351
2023-05-14T01:25:06.313Z,277.285
2023-05-14T01:30:06.353Z,271.636
2023-05-14T01:35:06.124Z,212.698
2023-05-14T01:40:06.135Z,166.617
2023-05-14T01:45:06.296Z,191.584
2023-05-14T01:50:06.171Z,198.452
2023-05-14T01:55:06.147Z,199.756
2023-05-14T02:00:06.152Z,196.4
2023-05-14T02:05:06.994Z,273.254
2023-05-14T02:10:06.248Z,303.031
2023-05-14T02:15:06.154Z,296.991
2023-05-14T02:20:06.172Z,229.892
2023-05-14T02:25:06.203Z,208.548
2023-05-14T02:30:06.164Z,325.571
2023-05-14T02:35:06.378Z,310.692
2023-05-14T02:40:06.315Z,309.44
2023-05-14T02:45:06.303Z,307.392
2023-05-14T02:50:06.390Z,378.06600000000003
2023-05-14T02:55:06.405Z,428.035
2023-05-14T03:00:06.168Z,422.806
2023-05-14T03:05:06.194Z,357.652
2023-05-14T03:10:06.261Z,314.06600000000003
2023-05-14T03:15:06.221Z,316.314
2023-05-14T03:20:06.266Z,337.783
2023-05-14T03:25:06.234Z,338.753
2023-05-14T03:30:06.218Z,341.993
2023-05-14T03:35:06.232Z,417.27
2023-05-14T03:40:06.291Z,468.613
2023-05-14T03:45:06.228Z,458.305
2023-05-14T03:50:06.263Z,398.11
2023-05-14T03:55:06.229Z,339.337
2023-05-14T04:00:06.319Z,337.692
2023-05-14T04:05:06.352Z,345.12600000000003
2023-05-14T04:10:06.369Z,323.379
2023-05-14T04:15:06.470Z,310.503
2023-05-14T04:20:06.446Z,371.579
2023-05-14T04:25:06.479Z,433.301
2023-05-14T04:30:06.279Z,424.539
2023-05-14T04:35:06.298Z,398.472
2023-05-14T04:40:06.239Z,317.354
2023-05-14T04:45:06.337Z,314.664
2023-05-14T04:50:06.407Z,2210.685
2023-05-14T04:55:06.285Z,2919.78
2023-05-14T05:00:06.322Z,2351.222
2023-05-14T05:05:06.453Z,376.927
2023-05-14T05:10:06.275Z,459.106
2023-05-14T05:15:06.331Z,451.396
2023-05-14T05:20:06.341Z,432.985
2023-05-14T05:25:06.343Z,346.791
2023-05-14T05:30:06.398Z,348.297
2023-05-14T05:35:06.501Z,333.966
2023-05-14T05:40:06.435Z,316.931
2023-05-14T05:45:06.490Z,316.06
2023-05-14T05:50:06.332Z,356.556
2023-05-14T05:55:06.427Z,462.794
2023-05-14T06:00:06.402Z,450.75100000000003
2023-05-14T06:05:06.380Z,436.534
2023-05-14T06:10:06.410Z,302.532
2023-05-14T06:15:06.409Z,174.58100000000002
2023-05-14T06:20:06.436Z,167.985
2023-05-14T06:25:06.349Z,167.372
2023-05-14T06:30:06.400Z,167.524
2023-05-14T06:35:06.443Z,172.739
2023-05-14T06:40:06.458Z,434.571
2023-05-14T06:45:06.407Z,2470.188
2023-05-14T06:50:06.571Z,1986.876
2023-05-14T06:55:06.379Z,1873.372
2023-05-14T07:00:06.393Z,2016.402
2023-05-14T07:05:06.434Z,1969.317
2023-05-14T07:10:06.507Z,1924.8990000000001
2023-05-14T07:15:06.562Z,1128.285
2023-05-14T07:20:06.637Z,745.557
2023-05-14T07:25:06.586Z,1559.115
2023-05-14T07:30:06.625Z,658.819
2023-05-14T07:35:06.621Z,544.861
2023-05-14T07:40:06.737Z,576.663
2023-05-14T07:45:06.505Z,455.531
2023-05-14T07:50:06.465Z,465.473
2023-05-14T07:55:06.826Z,1712.253
2023-05-14T08:00:06.509Z,3938.524
2023-05-14T08:05:06.447Z,3732.539
2023-05-14T08:10:06.475Z,1803.173
2023-05-14T08:15:06.489Z,1335.003
2023-05-14T08:20:06.515Z,820.76
2023-05-14T08:25:06.591Z,334.089
2023-05-14T08:30:06.483Z,670.532
2023-05-14T08:35:06.495Z,548.994
2023-05-14T08:40:06.579Z,2159.954
2023-05-14T08:45:06.655Z,5337.401
2023-05-14T08:50:06.647Z,2645.828
2023-05-14T08:55:06.705Z,2676.4320000000002
2023-05-14T09:00:06.675Z,2119.98
2023-05-14T09:05:06.731Z,641.092
2023-05-14T09:10:06.559Z,6329.609
2023-05-14T09:15:06.540Z,3816.2490000000003
2023-05-14T09:20:06.539Z,2563.818
2023-05-14T09:25:06.658Z,1285.961
2023-05-14T09:30:06.564Z,410.871
2023-05-14T09:35:06.682Z,382.647
2023-05-14T09:40:06.558Z,483.645
2023-05-14T09:45:06.564Z,499.41700000000003
2023-05-14T09:50:06.580Z,585.827
2023-05-14T09:55:06.675Z,487.967
2023-05-14T10:00:06.688Z,378.169
2023-05-14T10:05:06.572Z,485.319
2023-05-14T10:10:06.541Z,401.437
2023-05-14T10:15:06.575Z,444.355
2023-05-14T10:20:06.615Z,448.41
2023-05-14T10:25:06.598Z,410.711
2023-05-14T10:30:06.626Z,620.211
2023-05-14T10:35:06.717Z,524.896
2023-05-14T10:40:06.661Z,545.833
2023-05-14T10:45:06.674Z,471.178
2023-05-14T10:50:06.727Z,413.095
2023-05-14T10:55:06.746Z,491.13300000000004
2023-05-14T11:00:06.644Z,384.392
2023-05-14T11:05:06.629Z,388.623
2023-05-14T11:10:06.651Z,463.402
2023-05-14T11:15:06.692Z,598.602
2023-05-14T11:20:06.683Z,659.8000000000001
2023-05-14T11:25:06.607Z,461.54200000000003
2023-05-14T11:30:06.761Z,379.03000000000003
2023-05-14T11:35:06.798Z,431.297
2023-05-14T11:40:06.644Z,563.208
2023-05-14T11:45:06.652Z,590.417
2023-05-14T11:50:08.650Z,482.005
2023-05-14T11:55:06.735Z,397.752
2023-05-14T12:00:06.670Z,477.735
2023-05-14T12:17:30.588Z,602.293
2023-05-14T12:20:06.692Z,280.79200000000003
2023-05-14T12:25:06.690Z,295.555
2023-05-14T12:30:20.408Z,294.083
2023-05-14T12:35:06.688Z,270.67900000000003
2023-05-14T12:40:06.713Z,269.934
2023-05-14T12:45:06.885Z,345.385
2023-05-14T12:50:06.928Z,411.493
2023-05-14T12:55:06.754Z,516.331
2023-05-14T13:00:06.883Z,1982.48
2023-05-14T13:05:06.696Z,3033.532
2023-05-14T13:10:00.836Z,3156.355
2023-05-14T13:15:00.874Z,280.072
2023-05-14T13:20:00.899Z,287.032
2023-05-14T13:25:00.941Z,1313.8990000000001
2023-05-14T13:30:01.075Z,3169.9320000000002
2023-05-14T13:35:00.866Z,1598.893
2023-05-14T13:40:00.833Z,498.475
2023-05-14T13:45:00.877Z,483.956
2023-05-14T13:50:00.940Z,394.361
2023-05-14T13:55:00.941Z,396.668
2023-05-14T14:00:00.948Z,396.26300000000003
2023-05-14T14:05:01.123Z,391.212
2023-05-14T14:10:00.868Z,353.175
2023-05-14T14:15:00.864Z,349.19
2023-05-14T14:20:00.897Z,459.079
2023-05-14T14:25:01.137Z,450.369
2023-05-14T14:30:00.962Z,2481.887
2023-05-14T14:35:01.025Z,2915.164
2023-05-14T14:40:01.064Z,173.25900000000001
2023-05-14T14:45:00.948Z,172.8
2023-05-14T14:50:00.976Z,192.316
2023-05-14T14:55:00.954Z,199.453
2023-05-14T15:00:02.432Z,206.99
2023-05-14T15:05:00.908Z,311.882
2023-05-14T15:10:00.970Z,324.959
2023-05-14T15:15:01.149Z,314.177
2023-05-14T15:20:00.958Z,237.267
2023-05-14T15:25:00.969Z,197.043
2023-05-14T15:30:01.026Z,197.148
2023-05-14T15:35:00.931Z,195.895
2023-05-14T15:40:00.979Z,195.467
2023-05-14T15:45:01.041Z,179.102
2023-05-14T15:50:01.120Z,238.679
2023-05-14T15:55:01.299Z,285.321
2023-05-14T16:00:01.039Z,277.218
2023-05-14T16:05:00.980Z,230.757
2023-05-14T16:10:01.009Z,170.71
2023-05-14T16:15:01.008Z,168.519
2023-05-14T16:20:01.017Z,168.239
2023-05-14T16:25:03.229Z,186.049
2023-05-14T16:30:01.441Z,202.52700000000002
2023-05-14T16:35:01.008Z,347.14300000000003
2023-05-14T16:40:01.030Z,323.021
2023-05-14T16:45:01.066Z,312.999
2023-05-14T16:50:01.046Z,274.889
2023-05-14T16:55:01.020Z,251.606
2023-05-14T17:00:01.220Z,256.935
2023-05-14T17:05:01.326Z,255.832
2023-05-14T17:10:01.185Z,255.769
2023-05-14T17:15:02.518Z,255.084
2023-05-14T17:20:01.082Z,260.603
2023-05-14T17:25:01.140Z,351.454
2023-05-14T17:30:01.086Z,344.004
2023-05-14T17:35:01.056Z,350.805
2023-05-14T17:40:01.519Z,326.068
2023-05-14T17:45:01.225Z,328.634
2023-05-14T17:50:01.065Z,323.935
2023-05-14T17:55:01.089Z,235.578
2023-05-14T18:00:01.050Z,211.145
2023-05-14T18:05:01.074Z,219.161
2023-05-14T18:10:01.082Z,325.01800000000003
2023-05-14T18:15:01.167Z,333.511
2023-05-14T18:20:01.167Z,322.385
2023-05-14T18:25:01.200Z,241.35500000000002
2023-05-14T18:30:01.248Z,226.698
2023-05-14T18:35:01.129Z,219.377
2023-05-14T18:40:01.112Z,211.84900000000002
2023-05-14T18:45:01.194Z,197.205
2023-05-14T18:50:01.226Z,170.631
2023-05-14T18:55:01.214Z,385.967
2023-05-14T19:00:01.188Z,472.079
2023-05-14T19:05:01.564Z,338.473
2023-05-14T19:10:01.191Z,313.039
2023-05-14T19:15:01.333Z,248.553
2023-05-14T19:20:01.328Z,222.86100000000002
2023-05-14T19:25:01.141Z,203.002
2023-05-14T19:30:01.189Z,250.966
2023-05-14T19:35:01.200Z,421.444
2023-05-14T19:40:01.206Z,419.539
2023-05-14T19:45:01.239Z,668.168
2023-05-14T19:50:01.253Z,675.341
2023-05-14T19:55:01.192Z,614.719
2023-05-14T20:00:01.235Z,515.114
2023-05-14T20:05:01.251Z,514.357
2023-05-14T20:10:01.360Z,567.987
2023-05-14T20:15:01.385Z,351.323
2023-05-14T20:20:01.206Z,360.558
2023-05-14T20:25:01.237Z,479.72700000000003
2023-05-14T20:30:01.213Z,637.894
2023-05-14T20:35:01.252Z,726.1610000000001
2023-05-14T20:40:01.347Z,592.315
2023-05-14T20:45:01.193Z,517.452
2023-05-14T20:50:01.271Z,514.792
2023-05-14T20:55:02.235Z,506.531
2023-05-14T21:00:01.318Z,498.58500000000004
2023-05-14T21:05:01.538Z,510.73
2023-05-14T21:10:01.460Z,520.909
2023-05-14T21:15:01.456Z,636.509
2023-05-14T21:20:01.244Z,613.825
2023-05-14T21:25:01.265Z,526.912
2023-05-14T21:30:01.273Z,437.385
2023-05-14T21:35:01.288Z,427.575
2023-05-14T21:40:01.318Z,424.367
2023-05-14T21:45:01.269Z,428.848
2023-05-14T21:50:01.307Z,2679.591
2023-05-14T21:55:01.392Z,2891.793
2023-05-14T22:00:01.496Z,2501.652
2023-05-14T22:05:01.459Z,339.411
2023-05-14T22:10:01.509Z,330.943
2023-05-14T22:15:01.338Z,240.586
2023-05-14T22:20:01.330Z,219.592
2023-05-14T22:25:01.299Z,218.076
2023-05-14T22:30:01.322Z,220.446
2023-05-14T22:35:01.350Z,217.77100000000002
2023-05-14T22:40:01.374Z,227.773
2023-05-14T22:45:01.344Z,318.157
2023-05-14T22:50:01.466Z,346.94
2023-05-14T22:55:01.440Z,339.851
2023-05-14T23:00:01.475Z,297.232
2023-05-14T23:05:01.472Z,223.461
2023-05-14T23:10:01.573Z,220.715
2023-05-14T23:15:01.478Z,217.421
2023-05-14T23:20:01.433Z,197.491
2023-05-14T23:25:01.441Z,169.958
2023-05-14T23:30:02.851Z,216.29
2023-05-14T23:35:01.352Z,306.234
2023-05-14T23:40:01.411Z,302.857
2023-05-14T23:45:01.364Z,239.06300000000002
2023-05-14T23:50:01.451Z,188.44
2023-05-14T23:55:01.371Z,187.282
